Amory, Mississippi
Current Conditions -  °F | °C
As of 6:15 AM on Thursday 29 Jan 2015 (Local Time) from KM40 Reporting Station
Scattered Clouds Scattered Clouds  
Wind Chill: 45°   Ceiling: Unl
Heat Index: 48°   Visibility: 10mi
Dew Point: 34°   Wind: 7mph
Humidity: 57%   Direction: 170°S
Pressure: 30.17"   Gusts: NA
Location:  33.99°N, 88.49°W
Report Text: KM40 291215Z AUTO 17006KT 10SM SCT100 09/01 A3017 RMK AO2
Loading
Personal Weather Stations






























Interactive Weather Map New forecast layout! Learn more

10-Day Weather Forecast

Advertisements
Track Severe Weather on mobile